createdAt,value
2016-08-07T00:00:21.301Z,965.73
2016-08-07T00:01:21.286Z,965.72
2016-08-07T00:02:21.287Z,965.77
2016-08-07T00:03:21.306Z,965.74
2016-08-07T00:04:21.321Z,965.7
2016-08-07T00:05:21.309Z,965.7
2016-08-07T00:06:21.334Z,965.72
2016-08-07T00:07:21.311Z,965.7
2016-08-07T00:08:21.308Z,965.71
2016-08-07T00:09:21.290Z,965.69
2016-08-07T00:10:21.308Z,965.7
2016-08-07T00:11:21.312Z,965.69
2016-08-07T00:12:21.279Z,965.73
2016-08-07T00:13:21.275Z,965.7
2016-08-07T00:14:21.272Z,965.72
2016-08-07T00:15:21.306Z,965.68
2016-08-07T00:16:21.332Z,965.67
2016-08-07T00:17:21.275Z,965.7
2016-08-07T00:18:21.269Z,965.64
2016-08-07T00:19:21.273Z,965.66
2016-08-07T00:20:21.298Z,965.63
2016-08-07T00:21:21.285Z,965.63
2016-08-07T00:22:21.290Z,965.66
2016-08-07T00:23:21.290Z,965.67
2016-08-07T00:24:21.297Z,965.65
2016-08-07T00:25:21.193Z,965.67
2016-08-07T00:26:21.350Z,965.68
2016-08-07T00:27:21.253Z,965.69
2016-08-07T00:28:21.219Z,965.72
2016-08-07T00:29:21.240Z,965.73
2016-08-07T00:30:21.245Z,965.72
2016-08-07T00:31:21.251Z,965.71
2016-08-07T00:32:21.258Z,965.71
2016-08-07T00:33:21.274Z,965.74
2016-08-07T00:34:21.140Z,965.72
2016-08-07T00:35:21.123Z,965.78
2016-08-07T00:36:21.111Z,965.79
2016-08-07T00:37:21.189Z,965.75
2016-08-07T00:38:21.207Z,965.75
2016-08-07T00:39:21.202Z,965.78
2016-08-07T00:40:21.198Z,965.77
2016-08-07T00:41:21.224Z,965.75
2016-08-07T00:42:21.077Z,965.71
2016-08-07T00:43:21.070Z,965.72
2016-08-07T00:44:21.082Z,965.69
2016-08-07T00:45:21.071Z,965.7
2016-08-07T00:46:21.050Z,965.73
2016-08-07T00:47:21.044Z,965.74
2016-08-07T00:48:21.040Z,965.74
2016-08-07T00:49:21.177Z,965.74
2016-08-07T00:50:21.040Z,965.7
2016-08-07T00:51:21.047Z,965.66
2016-08-07T00:52:21.037Z,965.68
2016-08-07T00:53:21.065Z,965.63
2016-08-07T00:54:20.917Z,965.63
2016-08-07T00:55:20.928Z,965.66
2016-08-07T00:56:20.923Z,965.59
2016-08-07T00:57:20.901Z,965.6
2016-08-07T00:58:20.901Z,965.67
2016-08-07T00:59:20.882Z,965.62
2016-08-07T01:00:20.875Z,965.6
2016-08-07T01:01:20.877Z,965.6
2016-08-07T01:02:20.874Z,965.6
2016-08-07T01:03:20.876Z,965.58
2016-08-07T01:04:20.861Z,965.63
2016-08-07T01:05:22.574Z,965.58
2016-08-07T01:06:20.885Z,965.61
2016-08-07T01:07:20.886Z,965.61
2016-08-07T01:08:20.851Z,965.63
2016-08-07T01:09:20.731Z,965.59
2016-08-07T01:10:20.712Z,965.59
2016-08-07T01:11:20.711Z,965.6
2016-08-07T01:12:20.704Z,965.56
2016-08-07T01:13:20.856Z,965.61
2016-08-07T01:14:20.700Z,965.58
2016-08-07T01:15:20.726Z,965.58
2016-08-07T01:16:20.713Z,965.58
2016-08-07T01:17:20.853Z,965.59
2016-08-07T01:18:20.669Z,965.52
2016-08-07T01:19:20.693Z,965.56
2016-08-07T01:20:20.691Z,965.55
2016-08-07T01:21:20.709Z,965.52
2016-08-07T01:22:20.650Z,965.45
2016-08-07T01:24:20.642Z,965.45
2016-08-07T01:25:20.645Z,965.44
2016-08-07T01:26:20.632Z,965.46
2016-08-07T01:27:20.640Z,965.45
2016-08-07T01:28:20.674Z,965.45
2016-08-07T01:29:20.631Z,965.47
2016-08-07T01:30:20.629Z,965.46
2016-08-07T01:31:20.612Z,965.4
2016-08-07T01:32:20.601Z,965.47
2016-08-07T01:33:20.659Z,965.43
2016-08-07T01:34:20.656Z,965.45
2016-08-07T01:35:20.586Z,965.49
2016-08-07T01:37:20.581Z,965.46
2016-08-07T01:38:20.590Z,965.49
2016-08-07T01:39:20.570Z,965.48
2016-08-07T01:40:20.560Z,965.44
2016-08-07T01:41:20.567Z,965.48
2016-08-07T01:42:20.560Z,965.49
2016-08-07T01:43:20.573Z,965.53
2016-08-07T01:44:20.584Z,965.5
2016-08-07T01:45:20.537Z,965.53
2016-08-07T01:46:20.541Z,965.53
2016-08-07T01:47:20.534Z,965.46
2016-08-07T01:48:20.520Z,965.49
2016-08-07T01:49:20.527Z,965.53
2016-08-07T01:50:20.506Z,965.54
2016-08-07T01:52:20.510Z,965.5
2016-08-07T01:53:20.493Z,965.48
2016-08-07T01:54:20.501Z,965.5
2016-08-07T01:55:20.509Z,965.5
2016-08-07T01:56:20.476Z,965.5
2016-08-07T01:57:20.480Z,965.46
2016-08-07T01:58:20.463Z,965.47
2016-08-07T01:59:20.463Z,965.44
2016-08-07T02:00:20.462Z,965.43
2016-08-07T02:01:20.454Z,965.44
2016-08-07T02:02:20.458Z,965.47
2016-08-07T02:03:20.441Z,965.42
2016-08-07T02:04:20.452Z,965.41
2016-08-07T02:05:20.430Z,965.38
2016-08-07T02:07:20.428Z,965.36
2016-08-07T02:08:20.491Z,965.36
2016-08-07T02:09:20.413Z,965.4
2016-08-07T02:10:20.418Z,965.36
2016-08-07T02:11:20.399Z,965.34
2016-08-07T02:12:20.398Z,965.33
2016-08-07T02:13:20.387Z,965.33
2016-08-07T02:14:20.390Z,965.33
2016-08-07T02:15:20.382Z,965.33
2016-08-07T02:16:20.385Z,965.32
2016-08-07T02:17:20.409Z,965.34
2016-08-07T02:18:20.366Z,965.33
2016-08-07T02:19:20.376Z,965.32
2016-08-07T02:20:20.363Z,965.3
2016-08-07T02:22:20.344Z,965.32
2016-08-07T02:23:20.341Z,965.34
2016-08-07T02:24:20.340Z,965.3
2016-08-07T02:25:20.494Z,965.32
2016-08-07T02:26:20.334Z,965.33
2016-08-07T02:27:20.332Z,965.35
2016-08-07T02:28:20.316Z,965.31
2016-08-07T02:29:20.317Z,965.32
2016-08-07T02:30:20.309Z,965.29
2016-08-07T02:31:20.302Z,965.33
2016-08-07T02:32:20.307Z,965.31
2016-08-07T02:33:20.292Z,965.35
2016-08-07T02:34:20.292Z,965.35
2016-08-07T02:35:20.470Z,965.34
2016-08-07T02:37:20.280Z,965.38
2016-08-07T02:38:20.272Z,965.38
2016-08-07T02:39:20.271Z,965.32
2016-08-07T02:40:20.266Z,965.35
2016-08-07T02:41:20.261Z,965.28
2016-08-07T02:42:20.252Z,965.31
2016-08-07T02:43:20.248Z,965.32
2016-08-07T02:44:20.249Z,965.3
2016-08-07T02:45:20.239Z,965.31
2016-08-07T02:46:20.236Z,965.31
2016-08-07T02:47:20.232Z,965.31
2016-08-07T02:48:20.225Z,965.38
2016-08-07T02:49:20.216Z,965.36
2016-08-07T02:50:20.220Z,965.37
2016-08-07T02:51:20.212Z,965.35
2016-08-07T02:52:20.206Z,965.33
2016-08-07T02:53:20.210Z,965.26
2016-08-07T02:54:20.195Z,965.34
2016-08-07T02:55:20.189Z,965.37
2016-08-07T02:56:20.186Z,965.34
2016-08-07T02:57:20.181Z,965.36
2016-08-07T02:58:20.176Z,965.34
2016-08-07T02:59:20.164Z,965.41
2016-08-07T03:00:20.897Z,965.41
2016-08-07T03:01:20.160Z,965.44
2016-08-07T03:02:20.156Z,965.43
2016-08-07T03:03:20.154Z,965.42
2016-08-07T03:04:20.258Z,965.4
2016-08-07T03:05:20.139Z,965.39
2016-08-07T03:06:20.146Z,965.46
2016-08-07T03:07:20.128Z,965.45
2016-08-07T03:08:20.126Z,965.47
2016-08-07T03:09:20.126Z,965.54
2016-08-07T03:10:20.110Z,965.58
2016-08-07T03:11:20.114Z,965.57
2016-08-07T03:12:20.101Z,965.56
2016-08-07T03:13:20.094Z,965.58
2016-08-07T03:14:20.094Z,965.57
2016-08-07T03:15:20.088Z,965.54
2016-08-07T03:16:20.083Z,965.55
2016-08-07T03:17:20.087Z,965.55
2016-08-07T03:18:20.076Z,965.56
2016-08-07T03:19:20.075Z,965.54
2016-08-07T03:20:20.060Z,965.5
2016-08-07T03:21:20.049Z,965.52
2016-08-07T03:22:20.061Z,965.51
2016-08-07T03:23:20.039Z,965.53
2016-08-07T03:24:20.046Z,965.51
2016-08-07T03:25:20.032Z,965.53
2016-08-07T03:26:20.023Z,965.54
2016-08-07T03:27:20.023Z,965.55
2016-08-07T03:28:20.014Z,965.52
2016-08-07T03:29:20.154Z,965.52
2016-08-07T03:30:20.015Z,965.51
2016-08-07T03:31:20.003Z,965.54
2016-08-07T03:32:19.991Z,965.56
2016-08-07T03:33:20.002Z,965.56
2016-08-07T03:34:19.983Z,965.6
2016-08-07T03:35:19.979Z,965.62
2016-08-07T03:36:20.291Z,965.6
2016-08-07T03:37:19.962Z,965.57
2016-08-07T03:38:19.965Z,965.62
2016-08-07T03:39:19.950Z,965.59
2016-08-07T03:40:19.961Z,965.58
2016-08-07T03:41:19.947Z,965.59
2016-08-07T03:42:19.933Z,965.61
2016-08-07T03:43:19.936Z,965.58
2016-08-07T03:44:19.923Z,965.63
2016-08-07T03:45:19.914Z,965.61
2016-08-07T03:46:19.908Z,965.57
2016-08-07T03:47:19.903Z,965.58
2016-08-07T03:48:19.898Z,965.63
2016-08-07T03:49:19.886Z,965.6
2016-08-07T03:50:19.891Z,965.57
2016-08-07T03:51:19.885Z,965.57
2016-08-07T03:52:19.872Z,965.58
2016-08-07T03:53:19.866Z,965.58
2016-08-07T03:54:19.860Z,965.57
2016-08-07T03:55:20.281Z,965.56
2016-08-07T03:56:19.864Z,965.57
2016-08-07T03:57:19.850Z,965.58
2016-08-07T03:58:19.839Z,965.6
2016-08-07T03:59:19.825Z,965.6
2016-08-07T04:00:19.820Z,965.61
2016-08-07T04:01:19.813Z,965.57
2016-08-07T04:02:19.818Z,965.6
2016-08-07T04:03:19.812Z,965.59
2016-08-07T04:04:19.820Z,965.59
2016-08-07T04:05:19.787Z,965.6
2016-08-07T04:06:19.784Z,965.57
2016-08-07T04:07:19.778Z,965.6
2016-08-07T04:08:21.542Z,965.6
2016-08-07T04:09:19.772Z,965.59
2016-08-07T04:10:19.943Z,965.58
2016-08-07T04:11:19.748Z,965.58
2016-08-07T04:12:19.752Z,965.58
2016-08-07T04:13:19.747Z,965.55
2016-08-07T04:14:19.740Z,965.6
2016-08-07T04:15:19.726Z,965.61
2016-08-07T04:16:19.721Z,965.59
2016-08-07T04:17:19.712Z,965.61
2016-08-07T04:18:19.713Z,965.61
2016-08-07T04:19:19.715Z,965.58
2016-08-07T04:20:19.698Z,965.58
2016-08-07T04:21:19.693Z,965.59
2016-08-07T04:22:19.682Z,965.59
2016-08-07T04:23:19.684Z,965.62
2016-08-07T04:24:19.676Z,965.61
2016-08-07T04:25:19.668Z,965.58
2016-08-07T04:26:19.668Z,965.59
2016-08-07T04:27:19.659Z,965.61
2016-08-07T04:28:19.642Z,965.59
2016-08-07T04:29:19.699Z,965.61
2016-08-07T04:30:19.632Z,965.6
2016-08-07T04:31:19.623Z,965.6
2016-08-07T04:32:19.621Z,965.61
2016-08-07T04:33:19.613Z,965.66
2016-08-07T04:34:19.620Z,965.66
2016-08-07T04:35:19.601Z,965.64
2016-08-07T04:36:19.596Z,965.67
2016-08-07T04:37:19.595Z,965.68
2016-08-07T04:38:19.587Z,965.7
2016-08-07T04:39:19.573Z,965.68
2016-08-07T04:40:19.868Z,965.69
2016-08-07T04:41:19.570Z,965.69
2016-08-07T04:42:19.554Z,965.72
2016-08-07T04:43:19.571Z,965.69
2016-08-07T04:44:19.575Z,965.71
2016-08-07T04:45:19.545Z,965.72
2016-08-07T04:46:19.531Z,965.74
2016-08-07T04:47:19.529Z,965.72
2016-08-07T04:48:19.518Z,965.78
2016-08-07T04:49:19.519Z,965.79
2016-08-07T04:50:19.517Z,965.82
2016-08-07T04:51:19.505Z,965.79
2016-08-07T04:52:19.491Z,965.81
2016-08-07T04:53:19.486Z,965.82
2016-08-07T04:54:19.483Z,965.89
2016-08-07T04:55:19.477Z,965.84
2016-08-07T04:56:19.479Z,965.86
2016-08-07T04:57:19.478Z,965.87
2016-08-07T04:58:19.461Z,965.87
2016-08-07T04:59:19.450Z,965.93
2016-08-07T05:00:19.446Z,965.91
2016-08-07T05:01:19.437Z,965.91
2016-08-07T05:02:19.436Z,965.9
2016-08-07T05:03:19.429Z,965.9
2016-08-07T05:04:19.427Z,965.9
2016-08-07T05:05:19.424Z,965.88
2016-08-07T05:06:19.406Z,965.9
2016-08-07T05:07:19.402Z,965.9
2016-08-07T05:08:19.400Z,965.93
2016-08-07T05:09:19.390Z,965.94
2016-08-07T05:10:19.394Z,965.95
2016-08-07T05:11:19.388Z,965.93
2016-08-07T05:12:19.369Z,965.92
2016-08-07T05:13:19.577Z,965.92
2016-08-07T05:14:19.356Z,965.9
2016-08-07T05:15:19.420Z,965.94
2016-08-07T05:16:19.351Z,965.9
2016-08-07T05:17:19.352Z,965.9
2016-08-07T05:18:19.338Z,965.92
2016-08-07T05:19:19.397Z,965.93
2016-08-07T05:20:19.343Z,965.93
2016-08-07T05:21:19.324Z,965.96
2016-08-07T05:22:19.313Z,965.96
2016-08-07T05:23:19.320Z,965.97
2016-08-07T05:24:19.308Z,965.98
2016-08-07T05:25:19.291Z,965.97
2016-08-07T05:26:19.298Z,965.99
2016-08-07T05:27:19.290Z,966
2016-08-07T05:28:19.284Z,966
2016-08-07T05:29:19.272Z,965.95
2016-08-07T05:30:19.273Z,965.98
2016-08-07T05:31:19.268Z,965.98
2016-08-07T05:32:19.257Z,966
2016-08-07T05:33:19.249Z,965.98
2016-08-07T05:34:19.252Z,966.01
2016-08-07T05:35:19.259Z,965.98
2016-08-07T05:36:19.232Z,965.97
2016-08-07T05:38:19.231Z,965.96
2016-08-07T05:39:19.223Z,965.96
2016-08-07T05:40:19.233Z,965.97
2016-08-07T05:41:19.208Z,965.99
2016-08-07T05:42:19.206Z,966.01
2016-08-07T05:43:19.203Z,966.05
2016-08-07T05:44:19.187Z,966
2016-08-07T05:45:19.195Z,966
2016-08-07T05:46:19.191Z,966.02
2016-08-07T05:47:19.178Z,966
2016-08-07T05:48:19.180Z,966.01
2016-08-07T05:49:19.160Z,966.01
2016-08-07T05:50:19.161Z,966
2016-08-07T05:51:19.179Z,965.97
2016-08-07T05:53:19.141Z,965.99
2016-08-07T05:54:19.139Z,966.02
2016-08-07T05:55:19.133Z,966.02
2016-08-07T05:56:19.134Z,965.99
2016-08-07T05:57:19.133Z,965.97
2016-08-07T05:58:19.127Z,965.97
2016-08-07T05:59:19.114Z,965.97
2016-08-07T06:00:19.121Z,966.01
2016-08-07T06:01:19.108Z,966
2016-08-07T06:02:19.105Z,966.01
2016-08-07T06:03:19.093Z,966.05
2016-08-07T06:04:19.091Z,966.04
2016-08-07T06:05:19.090Z,966.08
2016-08-07T06:06:19.077Z,966.09
2016-08-07T06:08:19.082Z,966.07
2016-08-07T06:09:19.068Z,966.08
2016-08-07T06:10:19.065Z,966.11
2016-08-07T06:11:19.061Z,966.07
2016-08-07T06:12:19.056Z,966.12
2016-08-07T06:13:19.061Z,966.08
2016-08-07T06:14:19.046Z,966.09
2016-08-07T06:15:19.041Z,966.1
2016-08-07T06:16:19.109Z,966.08
2016-08-07T06:17:19.068Z,966.13
2016-08-07T06:18:19.027Z,966.16
2016-08-07T06:19:19.025Z,966.19
2016-08-07T06:20:19.023Z,966.18
2016-08-07T06:21:19.011Z,966.19
2016-08-07T06:23:19.013Z,966.17
2016-08-07T06:24:19.002Z,966.17
2016-08-07T06:25:18.999Z,966.17
2016-08-07T06:26:18.988Z,966.23
2016-08-07T06:27:18.990Z,966.21
2016-08-07T06:28:18.998Z,966.2
2016-08-07T06:29:18.980Z,966.2
2016-08-07T06:30:19.318Z,966.18
2016-08-07T06:31:18.979Z,966.2
2016-08-07T06:32:18.968Z,966.17
2016-08-07T06:33:18.964Z,966.16
2016-08-07T06:34:18.970Z,966.2
2016-08-07T06:35:18.982Z,966.2
2016-08-07T06:36:18.964Z,966.17
2016-08-07T06:37:18.945Z,966.18
2016-08-07T06:38:18.942Z,966.16
2016-08-07T06:39:18.943Z,966.13
2016-08-07T06:40:18.940Z,966.18
2016-08-07T06:41:18.944Z,966.17
2016-08-07T06:42:18.936Z,966.17
2016-08-07T06:43:18.921Z,966.17
2016-08-07T06:44:18.933Z,966.18
2016-08-07T06:45:18.924Z,966.15
2016-08-07T06:46:18.909Z,966.18
2016-08-07T06:47:18.925Z,966.13
2016-08-07T06:48:18.909Z,966.18
2016-08-07T06:49:18.904Z,966.17
2016-08-07T06:50:18.899Z,966.14
2016-08-07T06:51:18.889Z,966.17
2016-08-07T06:52:18.901Z,966.21
2016-08-07T06:53:18.895Z,966.18
2016-08-07T06:54:18.880Z,966.16
2016-08-07T06:55:18.877Z,966.16
2016-08-07T06:56:18.873Z,966.16
2016-08-07T06:57:18.871Z,966.22
2016-08-07T06:58:18.875Z,966.33
2016-08-07T06:59:18.862Z,966.33
2016-08-07T07:00:18.885Z,966.32
2016-08-07T07:01:18.860Z,966.4
2016-08-07T07:02:19.016Z,966.3
2016-08-07T07:03:18.850Z,966.54
2016-08-07T07:04:18.852Z,966.61
2016-08-07T07:05:18.847Z,966.92
2016-08-07T07:06:18.841Z,966.83
2016-08-07T07:07:18.848Z,966.84
2016-08-07T07:08:18.840Z,967.09
2016-08-07T07:09:18.837Z,967.12
2016-08-07T07:10:18.837Z,966.76
2016-08-07T07:11:18.833Z,966.54
2016-08-07T07:12:18.840Z,966.51
2016-08-07T07:13:18.837Z,966.5
2016-08-07T07:14:18.842Z,966.57
2016-08-07T07:15:18.834Z,966.61
2016-08-07T07:16:18.843Z,966.6
2016-08-07T07:17:18.837Z,966.68
2016-08-07T07:18:18.843Z,966.82
2016-08-07T07:19:18.845Z,966.59
2016-08-07T07:20:18.849Z,966.92
2016-08-07T07:21:18.852Z,966.99
2016-08-07T07:22:18.852Z,967.14
2016-08-07T07:23:18.854Z,966.64
2016-08-07T07:24:18.860Z,967.25
2016-08-07T07:25:18.863Z,967.38
2016-08-07T07:26:18.856Z,966.92
2016-08-07T07:27:18.863Z,967.89
2016-08-07T07:28:18.875Z,967
2016-08-07T07:29:18.867Z,967.26
2016-08-07T07:30:18.867Z,966.44
2016-08-07T07:31:18.875Z,966.97
2016-08-07T07:32:18.879Z,967.62
2016-08-07T07:33:18.890Z,966.79
2016-08-07T07:34:18.884Z,966.64
2016-08-07T07:35:18.896Z,967.56
2016-08-07T07:36:18.906Z,966.52
2016-08-07T07:37:18.910Z,968.01
2016-08-07T07:38:18.898Z,967.46
2016-08-07T07:39:18.904Z,967.37
2016-08-07T07:40:18.918Z,967.89
2016-08-07T07:41:18.927Z,967.23
2016-08-07T07:42:18.940Z,966.6
2016-08-07T07:43:18.928Z,966.6
2016-08-07T07:44:18.937Z,966.28
2016-08-07T07:45:18.936Z,966.5
2016-08-07T07:46:18.953Z,966.3
2016-08-07T07:47:18.957Z,966.28
2016-08-07T08:02:20.958Z,966.17
2016-08-07T08:03:20.899Z,966.18
2016-08-07T08:04:20.903Z,966.16
2016-08-07T08:05:20.913Z,966.15
2016-08-07T08:06:20.918Z,966.15
2016-08-07T08:07:20.924Z,966.11
2016-08-07T08:08:20.918Z,966.13
2016-08-07T08:09:20.923Z,966.12
2016-08-07T08:10:20.931Z,966.14
2016-08-07T08:11:20.930Z,966.1
2016-08-07T08:12:20.935Z,966.09
2016-08-07T08:13:20.935Z,966.1
2016-08-07T08:14:20.947Z,966.09
2016-08-07T08:15:20.944Z,966.15
2016-08-07T08:16:20.947Z,966.16
2016-08-07T08:17:20.948Z,966.16
2016-08-07T08:18:20.960Z,966.19
2016-08-07T08:19:20.960Z,966.18
2016-08-07T08:20:20.967Z,966.16
2016-08-07T08:21:20.958Z,966.25
2016-08-07T08:22:20.970Z,966.22
2016-08-07T08:23:20.969Z,966.2
2016-08-07T08:24:20.967Z,966.24
2016-08-07T08:25:20.966Z,966.27
2016-08-07T08:26:20.970Z,966.28
2016-08-07T08:27:20.975Z,966.25
2016-08-07T08:28:20.980Z,966.23
2016-08-07T08:29:20.974Z,966.22
2016-08-07T08:30:20.986Z,966.2
2016-08-07T08:31:20.994Z,966.21
2016-08-07T08:32:20.987Z,966.17
2016-08-07T08:33:20.983Z,966.27
2016-08-07T08:34:20.989Z,966.32
2016-08-07T08:35:20.992Z,966.33
2016-08-07T08:36:20.999Z,966.33
2016-08-07T08:37:20.994Z,966.34
2016-08-07T08:38:21.003Z,966.32
2016-08-07T08:39:21.003Z,966.33
2016-08-07T08:40:20.998Z,966.29
2016-08-07T08:41:20.995Z,966.32
2016-08-07T08:42:20.998Z,966.36
2016-08-07T08:43:21.000Z,966.33
2016-08-07T08:44:20.999Z,966.36
2016-08-07T08:45:21.004Z,966.37
2016-08-07T08:46:21.006Z,966.34
2016-08-07T08:47:21.005Z,966.36
2016-08-07T08:48:21.008Z,966.35
2016-08-07T08:49:21.010Z,966.36
2016-08-07T08:50:21.022Z,966.31
2016-08-07T08:51:21.011Z,966.25
2016-08-07T08:52:21.011Z,966.22
2016-08-07T08:53:21.016Z,966.21
2016-08-07T08:54:21.005Z,966.22
2016-08-07T08:55:21.011Z,966.22
2016-08-07T08:56:21.015Z,966.25
2016-08-07T08:57:21.022Z,966.2
2016-08-07T08:58:21.009Z,966.17
2016-08-07T08:59:21.020Z,966.17
2016-08-07T09:00:21.011Z,966.22
2016-08-07T09:01:21.028Z,966.17
2016-08-07T09:02:21.012Z,966.21
2016-08-07T09:03:21.014Z,966.19
2016-08-07T09:04:21.026Z,966.2
2016-08-07T09:05:21.023Z,966.21
2016-08-07T09:06:21.016Z,966.15
2016-08-07T09:07:21.026Z,966.13
2016-08-07T09:08:21.021Z,966.13
2016-08-07T09:09:21.017Z,966.08
2016-08-07T09:10:21.020Z,966.09
2016-08-07T09:11:21.022Z,966.11
2016-08-07T09:12:21.022Z,966.12
2016-08-07T09:13:21.031Z,966.12
2016-08-07T09:14:21.021Z,966.07
2016-08-07T09:15:21.028Z,966.12
2016-08-07T09:16:21.022Z,966.12
2016-08-07T09:17:21.021Z,966.11
2016-08-07T09:18:21.021Z,966.06
2016-08-07T09:19:21.043Z,966.11
2016-08-07T09:20:21.023Z,966.12
2016-08-07T09:21:21.034Z,966.11
2016-08-07T09:22:21.026Z,966.06
2016-08-07T09:24:21.033Z,966.09
2016-08-07T09:25:21.029Z,966.05
2016-08-07T09:26:21.031Z,966.03
2016-08-07T09:27:21.037Z,966.02
2016-08-07T09:28:21.039Z,965.98
2016-08-07T09:29:21.039Z,965.99
2016-08-07T09:30:21.032Z,966.03
2016-08-07T09:31:21.037Z,966.02
2016-08-07T09:32:21.056Z,966.06
2016-08-07T09:33:21.039Z,965.95
2016-08-07T09:34:21.035Z,965.97
2016-08-07T09:35:21.045Z,965.96
2016-08-07T09:36:21.041Z,965.98
2016-08-07T09:37:21.040Z,965.91
2016-08-07T09:38:21.039Z,965.95
2016-08-07T09:39:21.051Z,965.94
2016-08-07T09:40:21.051Z,965.94
2016-08-07T09:41:21.045Z,965.93
2016-08-07T09:42:21.041Z,965.93
2016-08-07T09:43:21.042Z,965.91
2016-08-07T09:44:21.064Z,965.88
2016-08-07T09:45:21.042Z,965.93
2016-08-07T09:46:21.058Z,965.87
2016-08-07T09:47:21.055Z,965.85
2016-08-07T09:48:21.046Z,965.87
2016-08-07T09:49:21.054Z,965.8
2016-08-07T09:50:21.054Z,965.81
2016-08-07T09:51:21.051Z,965.83
2016-08-07T09:52:21.048Z,965.84
2016-08-07T09:54:21.048Z,965.79
2016-08-07T09:55:21.053Z,965.78
2016-08-07T09:56:21.050Z,965.78
2016-08-07T09:57:21.051Z,965.78
2016-08-07T09:59:21.055Z,965.82
2016-08-07T10:00:21.065Z,965.75
2016-08-07T10:01:21.053Z,965.76
2016-08-07T10:02:21.057Z,965.82
2016-08-07T10:03:21.057Z,965.77
2016-08-07T10:04:21.060Z,965.76
2016-08-07T10:05:21.061Z,965.72
2016-08-07T10:06:21.055Z,965.73
2016-08-07T10:07:21.056Z,965.72
2016-08-07T10:09:21.057Z,965.7
2016-08-07T10:10:21.071Z,965.69
2016-08-07T10:11:21.057Z,965.73
2016-08-07T10:12:21.071Z,965.75
2016-08-07T10:13:21.060Z,965.76
2016-08-07T10:14:21.065Z,965.75
2016-08-07T10:15:21.065Z,965.77
2016-08-07T10:16:21.061Z,965.71
2016-08-07T10:17:21.064Z,965.7
2016-08-07T10:18:21.061Z,965.71
2016-08-07T10:19:21.064Z,965.73
2016-08-07T10:20:21.074Z,965.75
2016-08-07T10:21:21.064Z,965.75
2016-08-07T10:22:21.073Z,965.77
2016-08-07T10:24:21.064Z,965.7
2016-08-07T10:25:21.074Z,965.68
2016-08-07T10:26:21.070Z,965.76
2016-08-07T10:27:21.067Z,965.73
2016-08-07T10:28:21.065Z,965.71
2016-08-07T10:29:21.065Z,965.69
2016-08-07T10:30:21.072Z,965.67
2016-08-07T10:31:21.072Z,965.67
2016-08-07T10:32:21.075Z,965.69
2016-08-07T10:33:21.067Z,965.68
2016-08-07T10:34:21.097Z,965.69
2016-08-07T10:35:21.077Z,965.63
2016-08-07T10:36:21.067Z,965.64
2016-08-07T10:37:21.074Z,965.61
2016-08-07T10:38:21.067Z,965.59
2016-08-07T10:39:21.075Z,965.56
2016-08-07T10:40:21.071Z,965.58
2016-08-07T10:41:21.072Z,965.61
2016-08-07T10:42:21.069Z,965.62
2016-08-07T10:43:21.073Z,965.55
2016-08-07T10:44:21.070Z,965.55
2016-08-07T10:45:21.068Z,965.53
2016-08-07T10:46:21.070Z,965.52
2016-08-07T10:47:21.071Z,965.53
2016-08-07T10:48:21.069Z,965.56
2016-08-07T10:49:21.071Z,965.54
2016-08-07T10:50:21.070Z,965.51
2016-08-07T10:51:21.077Z,965.51
2016-08-07T10:52:21.070Z,965.46
2016-08-07T10:53:21.075Z,965.48
2016-08-07T10:54:21.076Z,965.46
2016-08-07T10:55:21.080Z,965.5
2016-08-07T10:56:21.076Z,965.49
2016-08-07T10:57:21.080Z,965.52
2016-08-07T10:58:21.076Z,965.51
2016-08-07T10:59:21.081Z,965.51
2016-08-07T11:00:21.075Z,965.47
2016-08-07T11:01:21.071Z,965.51
2016-08-07T11:02:21.075Z,965.46
2016-08-07T11:03:21.074Z,965.45
2016-08-07T11:04:21.077Z,965.4
2016-08-07T11:05:21.075Z,965.35
2016-08-07T11:06:21.074Z,965.38
2016-08-07T11:07:21.073Z,965.39
2016-08-07T11:08:21.079Z,965.38
2016-08-07T11:09:21.081Z,965.37
2016-08-07T11:10:21.077Z,965.38
2016-08-07T11:11:21.084Z,965.32
2016-08-07T11:12:21.085Z,965.33
2016-08-07T11:13:21.083Z,965.35
2016-08-07T11:14:21.076Z,965.39
2016-08-07T11:15:21.114Z,965.35
2016-08-07T11:16:21.097Z,965.3
2016-08-07T11:17:21.091Z,965.3
2016-08-07T11:18:21.080Z,965.29
2016-08-07T11:19:21.084Z,965.27
2016-08-07T11:20:21.083Z,965.32
2016-08-07T11:21:21.084Z,965.32
2016-08-07T11:22:21.085Z,965.27
2016-08-07T11:23:21.091Z,965.26
2016-08-07T11:24:21.089Z,965.25
2016-08-07T11:25:21.080Z,965.26
2016-08-07T11:26:21.089Z,965.22
2016-08-07T11:27:21.084Z,965.23
2016-08-07T11:28:21.089Z,965.26
2016-08-07T11:29:21.086Z,965.24
2016-08-07T11:30:21.084Z,965.22
2016-08-07T11:31:21.092Z,965.2
2016-08-07T11:32:21.093Z,965.17
2016-08-07T11:33:21.088Z,965.18
2016-08-07T11:34:21.097Z,965.16
2016-08-07T11:35:21.087Z,965.19
2016-08-07T11:36:21.088Z,965.17
2016-08-07T11:37:21.091Z,965.2
2016-08-07T11:38:21.100Z,965.19
2016-08-07T11:39:21.101Z,965.19
2016-08-07T11:40:21.093Z,965.18
2016-08-07T11:41:21.091Z,965.15
2016-08-07T11:42:21.101Z,965.16
2016-08-07T11:43:21.096Z,965.11
2016-08-07T11:44:21.118Z,965.14
2016-08-07T11:45:21.103Z,965.08
2016-08-07T11:46:21.096Z,965.1
2016-08-07T11:47:21.108Z,965.11
2016-08-07T11:48:21.109Z,965.06
2016-08-07T11:49:21.104Z,965.08
2016-08-07T11:50:21.096Z,965.09
2016-08-07T11:51:21.098Z,965.08
2016-08-07T11:52:21.101Z,965.05
2016-08-07T11:53:21.102Z,965.11
2016-08-07T11:54:21.111Z,965.09
2016-08-07T11:55:21.118Z,965.04
2016-08-07T11:56:21.101Z,965.06
2016-08-07T11:57:21.115Z,965.03
2016-08-07T11:58:21.107Z,964.93
2016-08-07T11:59:21.103Z,964.99
2016-08-07T12:00:21.107Z,965.01
2016-08-07T12:01:21.105Z,965
2016-08-07T12:02:21.103Z,964.97
2016-08-07T12:03:21.117Z,964.97
2016-08-07T12:04:21.117Z,964.88
2016-08-07T12:05:21.116Z,964.94
2016-08-07T12:06:21.110Z,964.98
2016-08-07T12:07:21.117Z,964.91
2016-08-07T12:08:21.113Z,964.96
2016-08-07T12:09:21.120Z,964.94
2016-08-07T12:10:21.117Z,964.9
2016-08-07T12:11:21.116Z,964.86
2016-08-07T12:12:21.117Z,964.86
2016-08-07T12:13:21.122Z,964.85
2016-08-07T12:14:21.113Z,964.89
2016-08-07T12:15:21.133Z,964.87
2016-08-07T12:16:21.114Z,964.87
2016-08-07T12:17:21.118Z,964.83
2016-08-07T12:18:21.128Z,964.81
2016-08-07T12:19:21.124Z,964.81
2016-08-07T12:20:21.117Z,964.77
2016-08-07T12:21:21.119Z,964.71
2016-08-07T12:22:21.129Z,964.72
2016-08-07T12:23:21.129Z,964.72
2016-08-07T12:24:21.128Z,964.71
2016-08-07T12:25:21.132Z,964.76
2016-08-07T12:26:21.144Z,964.71
2016-08-07T12:27:21.123Z,964.71
2016-08-07T12:28:21.132Z,964.65
2016-08-07T12:29:21.129Z,964.6
2016-08-07T12:30:21.135Z,964.62
2016-08-07T12:31:21.136Z,964.67
2016-08-07T12:32:21.138Z,964.71
2016-08-07T12:33:21.133Z,964.64
2016-08-07T12:34:21.129Z,964.66
2016-08-07T12:35:21.131Z,964.65
2016-08-07T12:36:21.129Z,964.6
2016-08-07T12:37:21.128Z,964.64
2016-08-07T12:38:21.138Z,964.62
2016-08-07T12:39:21.140Z,964.62
2016-08-07T12:40:21.141Z,964.67
2016-08-07T12:41:21.142Z,964.63
2016-08-07T12:42:21.137Z,964.64
2016-08-07T12:43:21.137Z,964.66
2016-08-07T12:44:21.135Z,964.66
2016-08-07T12:45:21.146Z,964.6
2016-08-07T12:46:21.147Z,964.59
2016-08-07T12:47:21.143Z,964.62
2016-08-07T12:48:21.144Z,964.54
2016-08-07T12:49:21.136Z,964.51
2016-08-07T12:50:21.142Z,964.57
2016-08-07T12:51:21.147Z,964.51
2016-08-07T12:52:21.154Z,964.43
2016-08-07T12:53:21.146Z,964.4
2016-08-07T12:55:21.155Z,964.49
2016-08-07T12:56:21.148Z,964.52
2016-08-07T12:57:21.153Z,964.53
2016-08-07T12:58:21.172Z,964.48
2016-08-07T12:59:21.152Z,964.42
2016-08-07T13:00:21.266Z,964.41
2016-08-07T13:01:21.154Z,964.39
2016-08-07T13:02:21.187Z,964.39